Time;durP1;ratioP1;P1;durP2;ratioP2;P2;SDS_P1;SDS_P2;PMS_P1;PMS_P2;Temp;Humidity;BMP_temperature;BMP_pressure;BME280_temperature;BME280_humidity;BME280_pressure;Samples;Min_cycle;Max_cycle;Signal;HPM_P1;HPM_P2
2023/05/28 00:01:17;;;;;;;9.13;8.30;;;;;;;28.88;57.50;100623.84;5117331;27;66499;-45
2023/05/28 00:03:48;;;;;;;11.00;8.30;;;;;;;28.90;58.19;100626.34;5106052;27;68896;-47
2023/05/28 00:06:19;;;;;;;8.38;7.68;;;;;;;28.94;58.53;100641.88;5116041;27;65907;-46
2023/05/28 00:08:50;;;;;;;11.68;9.27;;;;;;;28.92;59.39;100641.28;5105598;27;70148;-45
2023/05/28 00:11:23;;;;;;;15.52;9.00;;;;;;;28.90;59.11;100631.75;5105309;27;66018;-43
2023/05/28 00:13:54;;;;;;;25.33;16.63;;;;;;;29.05;67.02;100664.72;5104551;27;70279;-43
2023/05/28 00:16:26;;;;;;;27.05;20.33;;;;;;;28.86;65.36;100625.09;5110106;27;65662;-43
2023/05/28 00:18:57;;;;;;;35.45;22.13;;;;;;;29.14;66.62;100665.31;5106439;27;69601;-43
2023/05/28 00:21:28;;;;;;;32.75;22.33;;;;;;;28.95;69.12;100619.25;5106814;27;66369;-43
2023/05/28 00:23:59;;;;;;;47.50;26.92;;;;;;;29.21;71.29;100655.34;5110471;27;70317;-42
2023/05/28 00:26:30;;;;;;;39.25;26.27;;;;;;;29.20;71.04;100637.47;5109702;27;66191;-43
2023/05/28 00:29:02;;;;;;;31.33;22.40;;;;;;;29.17;68.89;100637.91;5110198;27;70312;-44
2023/05/28 00:31:32;;;;;;;30.38;21.10;;;;;;;29.29;68.64;100646.97;5105713;27;65688;-46
2023/05/28 00:34:04;;;;;;;23.60;20.63;;;;;;;27.07;68.51;100281.97;5120439;27;70569;-44
2023/05/28 00:36:35;;;;;;;28.00;20.08;;;;;;;28.83;68.37;100558.03;5117492;27;65793;-45
2023/05/28 00:39:06;;;;;;;25.90;19.38;;;;;;;29.27;68.88;100635.56;5107609;27;69083;-47
2023/05/28 00:41:38;;;;;;;23.73;19.25;;;;;;;29.34;68.64;100627.44;5106100;27;65305;-46
2023/05/28 00:44:09;;;;;;;22.52;18.20;;;;;;;29.43;68.85;100641.53;5110682;27;70267;-44
2023/05/28 00:46:43;;;;;;;25.27;18.83;;;;;;;29.47;68.97;100640.03;5107343;27;66360;-45
2023/05/28 00:49:14;;;;;;;25.05;18.80;;;;;;;29.46;69.26;100635.69;5111331;27;70244;-45
2023/05/28 00:51:45;;;;;;;26.83;18.35;;;;;;;29.37;69.53;100610.78;5118598;27;66472;-44
2023/05/28 00:54:17;;;;;;;22.53;18.90;;;;;;;29.40;69.09;100618.47;5121227;27;70018;-46
2023/05/28 00:56:49;;;;;;;20.55;18.40;;;;;;;29.48;69.61;100633.59;5120030;27;64637;-44
2023/05/28 00:59:24;;;;;;;29.38;19.00;;;;;;;29.28;69.63;100596.72;5118951;27;70163;-44
2023/05/28 01:01:55;;;;;;;29.00;19.35;;;;;;;29.47;69.78;100626.50;5115375;27;66407;-45
2023/05/28 01:04:31;;;;;;;27.25;19.38;;;;;;;29.54;69.60;100644.34;5115635;27;44100;-44
2023/05/28 01:07:02;;;;;;;24.30;19.05;;;;;;;29.55;69.93;100648.72;5120278;27;66343;-44
2023/05/28 01:09:34;;;;;;;28.48;19.13;;;;;;;29.55;69.94;100650.59;5115033;27;69906;-45
2023/05/28 01:12:07;;;;;;;23.63;19.75;;;;;;;29.10;70.42;100577.69;5101642;27;65737;-45
2023/05/28 01:14:38;;;;;;;22.20;18.85;;;;;;;29.63;69.69;100663.88;5100610;27;69849;-46
2023/05/28 01:17:10;;;;;;;22.03;18.53;;;;;;;29.61;69.60;100665.94;5122286;27;65302;-44
2023/05/28 01:19:42;;;;;;;;;;;;;;;29.33;71.45;100669.81;5118841;27;69507;-46
2023/05/28 01:22:16;;;;;;;26.50;20.60;;;;;;;28.72;70.22;100519.03;5105259;27;65649;-44
2023/05/28 01:24:49;;;;;;;32.08;21.40;;;;;;;29.62;69.63;100662.19;5116326;27;70407;-45
2023/05/28 01:27:20;;;;;;;27.45;20.52;;;;;;;29.58;70.29;100666.38;5104958;27;66150;-45
2023/05/28 01:29:51;;;;;;;32.53;20.95;;;;;;;29.51;70.03;100649.38;5105213;27;69851;-45
2023/05/28 01:32:22;;;;;;;23.27;20.45;;;;;;;29.71;69.86;100677.13;5098535;27;65767;-46
2023/05/28 01:34:53;;;;;;;47.83;26.13;;;;;;;29.68;72.75;100668.66;5104061;27;68945;-46
2023/05/28 01:37:26;;;;;;;39.15;26.98;;;;;;;29.59;72.80;100658.06;5110180;27;66884;-45
2023/05/28 01:39:59;;;;;;;41.40;27.42;;;;;;;28.81;73.21;100531.28;5106925;27;69500;-45
2023/05/28 01:42:32;;;;;;;40.25;26.45;;;;;;;28.92;73.85;100549.50;5102546;27;65559;-45
2023/05/28 01:45:06;;;;;;;34.28;26.92;;;;;;;29.03;73.75;100566.91;5113833;27;69518;-46
2023/05/28 01:47:41;;;;;;;49.30;27.60;;;;;;;29.60;74.68;100670.50;5105086;27;66061;-46
2023/05/28 01:50:14;;;;;;;32.55;22.73;;;;;;;29.69;75.08;100673.00;5106401;27;70615;-46
2023/05/28 01:52:45;;;;;;;38.00;24.00;;;;;;;29.56;75.33;100641.41;5109441;27;65345;-45
2023/05/28 01:55:16;;;;;;;28.35;20.33;;;;;;;29.67;73.52;100654.31;5111989;27;69746;-46
2023/05/28 01:57:48;;;;;;;24.17;19.77;;;;;;;29.73;73.00;100658.00;5112851;27;65540;-45
2023/05/28 02:00:20;;;;;;;21.13;18.75;;;;;;;29.78;72.36;100656.31;5118031;27;69449;-47
2023/05/28 02:02:51;;;;;;;22.30;18.52;;;;;;;29.82;72.34;100645.88;5102507;27;66608;-46
2023/05/28 02:05:23;;;;;;;22.45;18.83;;;;;;;29.73;71.58;100622.88;5099598;27;70523;-46
2023/05/28 02:07:56;;;;;;;25.02;19.42;;;;;;;29.90;71.95;100642.09;5106798;27;65337;-45
2023/05/28 02:10:30;;;;;;;23.67;19.27;;;;;;;29.75;71.60;100610.75;5112573;27;69535;-45
2023/05/28 02:13:01;;;;;;;20.40;18.42;;;;;;;29.90;71.38;100620.44;5108353;27;67439;-46
2023/05/28 02:15:32;;;;;;;24.85;19.73;;;;;;;29.88;71.29;100617.13;5113853;27;70376;-46
2023/05/28 02:18:03;;;;;;;21.40;19.05;;;;;;;29.68;71.02;100569.44;5115744;27;66174;-45
2023/05/28 02:20:34;;;;;;;22.60;18.50;;;;;;;29.81;71.01;100585.56;5112185;27;70061;-46
2023/05/28 02:23:05;;;;;;;23.43;18.10;;;;;;;29.93;71.13;100598.38;5110393;27;65863;-45
2023/05/28 02:25:36;;;;;;;23.38;18.73;;;;;;;29.97;70.86;100602.28;5104007;27;70152;-45
2023/05/28 02:28:07;;;;;;;21.65;19.00;;;;;;;30.09;70.92;100602.38;5107109;27;66498;-47
2023/05/28 02:30:38;;;;;;;24.53;18.87;;;;;;;29.97;71.17;100581.47;5111893;27;70164;-46
2023/05/28 02:33:09;;;;;;;20.13;18.17;;;;;;;30.11;71.02;100598.41;5117570;27;66391;-45
2023/05/28 02:35:40;;;;;;;21.13;18.27;;;;;;;30.06;71.12;100587.41;5117768;27;69154;-45
2023/05/28 02:38:11;;;;;;;20.40;18.23;;;;;;;30.17;70.81;100600.25;5118943;27;65777;-45
2023/05/28 02:40:43;;;;;;;19.17;17.15;;;;;;;29.60;70.40;100510.22;5107023;27;69404;-46
2023/05/28 02:43:14;;;;;;;22.98;17.77;;;;;;;30.19;70.58;100598.13;5117539;27;66294;-47
2023/05/28 02:45:46;;;;;;;18.65;16.60;;;;;;;30.19;70.63;100597.31;5108203;27;69453;-45
2023/05/28 02:48:17;;;;;;;18.23;16.48;;;;;;;30.17;70.78;100589.44;5117546;27;65840;-45
2023/05/28 02:50:48;;;;;;;17.70;16.23;;;;;;;30.25;70.42;100591.84;5105958;27;69847;-46
2023/05/28 02:53:37;;;;;;;18.15;16.55;;;;;;;30.25;70.29;100591.84;5118490;27;65792;-47
2023/05/28 02:56:08;;;;;;;17.52;15.80;;;;;;;30.22;70.19;100586.88;5110534;27;70032;-47
2023/05/28 02:58:45;;;;;;;17.75;16.00;;;;;;;30.35;70.40;100595.94;5111120;27;66588;-45
2023/05/28 03:01:16;;;;;;;;;;;;;;;30.07;71.56;100591.81;5109765;27;69885;-46
2023/05/28 03:03:47;;;;;;;16.08;14.50;;;;;;;30.36;70.27;100592.19;5117655;27;67361;-46
2023/05/28 03:06:20;;;;;;;17.85;15.85;;;;;;;30.40;69.83;100599.63;5119366;27;69667;-45
2023/05/28 03:08:54;;;;;;;16.60;15.23;;;;;;;30.44;69.60;100600.00;5112266;27;66535;-45
2023/05/28 03:11:26;;;;;;;16.95;15.35;;;;;;;30.42;69.68;100585.84;5109223;27;70851;-45
2023/05/28 03:13:56;;;;;;;16.67;15.15;;;;;;;29.90;69.38;100490.66;5109905;27;67323;-47
2023/05/28 03:16:28;;;;;;;17.73;16.13;;;;;;;30.53;69.64;100592.41;5112728;27;69271;-47
2023/05/28 03:18:59;;;;;;;16.30;14.65;;;;;;;30.49;69.53;100582.03;5113769;27;65939;-47
2023/05/28 03:21:33;;;;;;;19.30;15.20;;;;;;;30.57;68.84;100589.03;5111377;27;70098;-47
2023/05/28 03:24:05;;;;;;;17.20;15.48;;;;;;;30.61;69.16;100584.81;5119617;27;65638;-46
2023/05/28 03:26:44;;;;;;;16.52;15.23;;;;;;;30.42;68.59;100547.97;5117571;27;70464;-46
2023/05/28 03:29:20;;;;;;;16.90;15.40;;;;;;;30.67;68.96;100575.81;5114786;27;65995;-46
2023/05/28 03:32:11;;;;;;;16.75;15.00;;;;;;;30.63;69.05;100571.88;5096303;27;69697;-45
2023/05/28 03:34:42;;;;;;;17.15;15.63;;;;;;;30.74;68.67;100583.84;5114187;27;65530;-45
2023/05/28 03:37:15;;;;;;;17.15;15.48;;;;;;;30.78;68.54;100576.09;5107879;27;71231;-45
2023/05/28 03:39:46;;;;;;;17.25;15.65;;;;;;;30.49;68.15;100536.03;5107221;27;65330;-45
2023/05/28 03:42:17;;;;;;;16.23;14.82;;;;;;;30.77;68.48;100577.97;5105664;27;70733;-47
2023/05/28 03:44:48;;;;;;;17.15;15.43;;;;;;;30.82;67.99;100585.47;5106211;27;65850;-46
2023/05/28 03:47:19;;;;;;;16.40;15.20;;;;;;;30.85;68.47;100590.41;5110005;27;69787;-45
2023/05/28 03:49:50;;;;;;;22.83;20.70;;;;;;;30.53;69.00;100560.75;5114132;27;66901;-45
2023/05/28 03:52:22;;;;;;;29.27;21.25;;;;;;;30.39;69.62;100541.13;5119764;27;70382;-44
2023/05/28 03:54:55;;;;;;;27.17;22.00;;;;;;;30.49;69.54;100559.56;5106902;27;65441;-42
2023/05/28 03:57:27;;;;;;;32.05;22.25;;;;;;;30.73;69.78;100593.03;5109781;27;70480;-44
2023/05/28 04:00:00;;;;;;;39.10;24.15;;;;;;;30.72;70.30;100586.78;5110916;27;64747;-44
2023/05/28 04:02:32;;;;;;;33.72;24.70;;;;;;;30.69;70.55;100587.22;5098302;27;70222;-43
2023/05/28 04:05:03;;;;;;;43.60;27.40;;;;;;;30.73;71.22;100576.78;5107367;27;66519;-44
2023/05/28 04:07:34;;;;;;;42.22;29.70;;;;;;;30.71;70.84;100577.00;5108858;27;70238;-43
2023/05/28 04:10:06;;;;;;;35.42;28.92;;;;;;;30.67;71.67;100551.44;5095479;27;65653;-43
2023/05/28 04:12:37;;;;;;;36.25;30.25;;;;;;;30.85;71.37;100566.03;5104380;27;70289;-44
2023/05/28 04:15:08;;;;;;;43.88;30.17;;;;;;;30.80;71.37;100552.34;5106359;27;65519;-44
2023/05/28 04:17:40;;;;;;;44.40;31.13;;;;;;;30.76;71.08;100548.41;5114046;27;70040;-44
2023/05/28 04:20:12;;;;;;;40.65;30.23;;;;;;;30.72;71.48;100538.03;5116774;27;67453;-44
2023/05/28 04:22:43;;;;;;;51.03;37.35;;;;;;;30.78;71.07;100536.28;5113706;27;69793;-42
2023/05/28 04:25:14;;;;;;;48.80;39.33;;;;;;;30.88;70.66;100552.06;5110228;27;65596;-48
2023/05/28 04:27:45;;;;;;;49.22;33.90;;;;;;;30.98;70.28;100552.34;5110133;27;70108;-44
2023/05/28 04:30:16;;;;;;;45.87;31.57;;;;;;;30.97;69.86;100542.53;5107581;27;65412;-44
2023/05/28 04:32:48;;;;;;;34.72;30.48;;;;;;;31.06;69.71;100549.28;5107598;27;69217;-43
2023/05/28 04:35:19;;;;;;;33.93;30.33;;;;;;;31.10;69.31;100545.06;5111884;27;66397;-45
2023/05/28 04:37:53;;;;;;;39.58;28.85;;;;;;;31.08;69.68;100530.94;5107461;27;69827;-45
2023/05/28 04:40:24;;;;;;;32.30;28.00;;;;;;;31.18;69.29;100543.94;5108487;27;65541;-44
2023/05/28 04:42:55;;;;;;;39.83;28.30;;;;;;;31.13;69.09;100531.06;5112020;27;70090;-44
2023/05/28 04:45:28;;;;;;;37.63;28.05;;;;;;;31.07;68.98;100506.78;5102194;27;67367;-44
2023/05/28 04:48:01;;;;;;;34.83;27.75;;;;;;;31.07;68.70;100509.50;5105024;27;69442;-43
2023/05/28 04:50:32;;;;;;;28.98;25.27;;;;;;;31.26;68.44;100537.34;5098321;27;66528;-43
2023/05/28 04:53:03;;;;;;;27.33;23.27;;;;;;;31.26;68.82;100526.50;5099008;27;69152;-43
2023/05/28 04:55:35;;;;;;;26.80;22.35;;;;;;;31.16;68.76;100505.41;5108842;27;66562;-44
2023/05/28 04:58:07;;;;;;;27.87;22.27;;;;;;;31.03;68.57;100484.72;5103326;27;69591;-44
2023/05/28 05:00:38;;;;;;;23.45;19.40;;;;;;;31.36;67.70;100515.97;5102789;27;66244;-44
2023/05/28 05:03:10;;;;;;;19.03;17.33;;;;;;;31.42;67.53;100509.59;5086022;27;69967;-45
2023/05/28 05:05:41;;;;;;;18.15;16.38;;;;;;;31.31;67.49;100484.09;5112636;27;66430;-43
2023/05/28 05:08:13;;;;;;;18.58;16.45;;;;;;;31.46;67.23;100505.38;5114747;27;69549;-44
2023/05/28 05:10:45;;;;;;;22.55;16.42;;;;;;;31.50;67.34;100495.72;5113568;27;65821;-43
2023/05/28 05:13:16;;;;;;;18.20;16.55;;;;;;;31.32;67.44;100476.81;5108431;27;70309;-44
2023/05/28 05:15:47;;;;;;;19.17;17.13;;;;;;;31.50;67.49;100505.72;5111614;27;66408;-43
2023/05/28 05:18:18;;;;;;;19.80;17.63;;;;;;;31.49;67.60;100504.09;5105627;27;70066;-43
2023/05/28 05:20:49;;;;;;;19.42;17.08;;;;;;;31.51;67.82;100491.97;5104068;27;65681;-44
2023/05/28 05:23:21;;;;;;;19.77;17.60;;;;;;;31.38;68.79;100470.50;5118713;27;70074;-44
2023/05/28 05:25:52;;;;;;;23.45;19.10;;;;;;;31.39;67.78;100472.94;5103066;27;65114;-47
2023/05/28 05:28:23;;;;;;;29.83;19.02;;;;;;;31.31;68.05;100475.16;5103354;27;70120;-45
2023/05/28 05:30:54;;;;;;;21.30;17.70;;;;;;;31.06;66.93;100473.44;5106201;27;66129;-44
2023/05/28 05:33:25;;;;;;;22.37;18.03;;;;;;;30.82;65.11;100467.13;5105229;27;69838;-47
2023/05/28 05:36:17;;;;;;;24.23;16.52;;;;;;;30.64;63.76;100469.84;5099660;27;65923;-47
2023/05/28 05:38:59;;;;;;;24.02;16.50;;;;;;;30.40;62.62;100463.50;5082058;27;69134;-46
2023/05/28 05:41:59;;;;;;;17.67;15.88;;;;;;;30.19;61.23;100457.44;5092624;27;65423;-47
2023/05/28 05:44:34;;;;;;;16.63;14.95;;;;;;;30.05;60.12;100445.13;5110233;27;70035;-46
2023/05/28 05:47:05;;;;;;;17.90;14.38;;;;;;;29.89;59.20;100424.09;5095158;27;66132;-45
2023/05/28 05:49:36;;;;;;;14.27;13.10;;;;;;;29.98;58.00;100444.41;5085224;27;70189;-47
2023/05/28 05:52:09;;;;;;;14.60;13.32;;;;;;;29.75;57.49;100424.22;5077209;27;65995;-46
2023/05/28 05:54:42;;;;;;;15.05;13.88;;;;;;;29.86;56.58;100429.94;5102453;27;69490;-45
2023/05/28 05:57:13;;;;;;;13.75;12.68;;;;;;;29.86;56.09;100435.34;5101330;27;65693;-44
2023/05/28 05:59:46;;;;;;;31.83;13.77;;;;;;;29.91;56.91;100428.22;5102008;27;70406;-44
2023/05/28 06:02:17;;;;;;;;;;;;;;;29.80;56.05;100426.25;5099002;27;66156;-45
2023/05/28 06:04:49;;;;;;;13.50;12.30;;;;;;;30.10;55.98;100426.34;5127272;27;68157;-45
2023/05/28 06:07:42;;;;;;;12.75;11.52;;;;;;;30.21;56.58;100417.47;5077556;27;66341;-47
2023/05/28 06:10:32;;;;;;;14.13;12.10;;;;;;;30.24;53.84;100411.63;5113312;27;69691;-47
2023/05/28 06:13:03;;;;;;;13.70;11.60;;;;;;;30.31;53.37;100421.56;5117021;27;65548;-48
2023/05/28 06:15:34;;;;;;;12.35;11.38;;;;;;;29.95;53.40;100366.41;5104177;27;69940;-46
2023/05/28 06:18:05;;;;;;;11.82;10.93;;;;;;;30.10;52.88;100388.47;5112224;27;66013;-47
2023/05/28 06:20:37;;;;;;;11.83;10.70;;;;;;;30.34;52.57;100426.50;5118003;27;69585;-47
2023/05/28 06:23:08;;;;;;;13.05;10.80;;;;;;;30.28;51.97;100418.28;5112819;27;65858;-46
2023/05/28 06:25:40;;;;;;;10.93;9.77;;;;;;;30.26;52.87;100409.53;5114881;27;70007;-45
2023/05/28 06:28:11;;;;;;;11.40;10.48;;;;;;;30.14;51.04;100389.66;5110524;27;66886;-45
2023/05/28 06:30:42;;;;;;;11.18;10.27;;;;;;;30.20;50.91;100388.78;5101420;27;69075;-45
2023/05/28 06:33:14;;;;;;;;;;;;;;;30.10;50.28;100420.13;5117447;27;65867;-45
2023/05/28 06:35:44;;;;;;;9.80;9.30;;;;;;;30.00;50.06;100378.19;5111734;27;70066;-45
2023/05/28 06:38:15;;;;;;;10.30;9.48;;;;;;;30.03;50.24;100380.47;5115413;27;65180;-45
2023/05/28 06:40:47;;;;;;;9.87;9.13;;;;;;;30.27;50.04;100419.31;5111685;27;69015;-46
2023/05/28 06:43:18;;;;;;;10.07;9.10;;;;;;;30.28;50.42;100418.28;5105636;27;66010;-45
2023/05/28 06:46:21;;;;;;;9.43;8.82;;;;;;;30.24;49.04;100422.47;5104923;27;70697;-45
2023/05/28 06:48:51;;;;;;;9.10;8.40;;;;;;;30.07;49.31;100394.34;5104854;27;65845;-46
2023/05/28 06:51:23;;;;;;;8.20;7.70;;;;;;;30.08;49.74;100390.59;5099885;27;69933;-45
2023/05/28 06:53:54;;;;;;;9.68;8.88;;;;;;;30.15;49.14;100407.56;5110657;27;65939;-45
2023/05/28 06:56:29;;;;;;;9.25;8.50;;;;;;;30.04;49.25;100379.41;5107354;27;70057;-46
2023/05/28 06:59:18;;;;;;;8.90;8.23;;;;;;;30.09;48.52;100392.25;5114773;27;65805;-47
2023/05/28 07:02:09;;;;;;;8.23;7.73;;;;;;;30.12;48.92;100386.38;5105420;27;69570;-46
2023/05/28 07:04:54;;;;;;;8.75;7.95;;;;;;;30.15;48.67;100383.22;5109248;27;65393;-46
2023/05/28 07:07:30;;;;;;;8.55;8.00;;;;;;;30.18;48.25;100388.19;5127991;27;70253;-45
2023/05/28 07:10:00;;;;;;;7.85;7.35;;;;;;;30.13;48.12;100390.72;5111622;27;66000;-46
2023/05/28 07:12:34;;;;;;;8.40;7.80;;;;;;;30.10;48.19;100376.84;5108273;27;71611;-44
2023/05/28 07:15:06;;;;;;;9.02;8.40;;;;;;;30.00;48.26;100378.19;5103274;27;66001;-47
2023/05/28 07:17:37;;;;;;;7.97;7.20;;;;;;;29.98;47.89;100384.91;5107100;27;70677;-45
2023/05/28 07:20:08;;;;;;;7.80;7.30;;;;;;;30.03;48.73;100385.03;5110883;27;66233;-45
2023/05/28 07:22:50;;;;;;;8.73;7.40;;;;;;;29.99;47.75;100386.53;5109897;27;69904;-52
2023/05/28 07:25:22;;;;;;;7.27;6.67;;;;;;;30.06;48.91;100389.97;5106033;27;66217;-46
2023/05/28 07:27:54;;;;;;;11.60;6.38;;;;;;;30.19;48.90;100394.41;5096748;27;68857;-49
2023/05/28 07:30:35;;;;;;;7.85;7.05;;;;;;;30.18;51.12;100385.47;5114383;27;65955;-45
2023/05/28 07:33:08;;;;;;;10.95;6.35;;;;;;;30.14;52.54;100351.78;5103165;27;70263;-46
2023/05/28 07:35:39;;;;;;;8.70;6.50;;;;;;;29.83;53.95;100280.63;5109533;27;66561;-46
2023/05/28 07:38:12;;;;;;;7.10;6.60;;;;;;;30.46;55.14;100362.44;5111596;27;70141;-45
2023/05/28 07:40:46;;;;;;;8.90;6.43;;;;;;;30.56;55.42;100360.00;5110456;27;65629;-46
2023/05/28 07:43:31;;;;;;;12.43;6.32;;;;;;;30.49;56.23;100348.44;5116227;27;70472;-45
2023/05/28 07:46:06;;;;;;;13.32;6.00;;;;;;;30.71;56.98;100373.94;5101464;27;65169;-46
2023/05/28 07:48:49;;;;;;;6.97;6.33;;;;;;;30.78;57.97;100383.84;5117552;27;68131;-44
2023/05/28 07:51:27;;;;;;;10.13;7.13;;;;;;;30.81;59.32;100373.41;5108146;27;65612;-48
2023/05/28 07:54:06;;;;;;;8.15;6.28;;;;;;;30.76;61.71;100364.28;5102229;27;70390;-47
2023/05/28 07:56:37;;;;;;;7.05;6.45;;;;;;;30.99;62.75;100391.47;5107784;27;65032;-46
2023/05/28 07:59:11;;;;;;;7.20;6.60;;;;;;;31.03;63.49;100373.66;5105710;27;69177;-45
2023/05/28 08:01:48;;;;;;;9.48;6.63;;;;;;;31.11;63.59;100367.91;5107159;27;65755;-47
2023/05/28 08:04:22;;;;;;;10.70;7.50;;;;;;;31.07;64.83;100355.91;5122509;27;70933;-45
2023/05/28 08:06:53;;;;;;;6.38;5.93;;;;;;;30.69;65.09;100275.88;5106728;27;66288;-44
2023/05/28 08:09:25;;;;;;;10.55;6.88;;;;;;;31.08;65.97;100325.03;5113712;27;70505;-45
2023/05/28 08:12:01;;;;;;;10.30;6.43;;;;;;;31.22;65.85;100330.22;5104637;27;65621;-44
2023/05/28 08:14:34;;;;;;;15.45;6.63;;;;;;;31.34;66.35;100336.47;5108749;27;69535;-45
2023/05/28 08:17:10;;;;;;;8.02;6.78;;;;;;;31.20;68.07;100332.34;5105738;27;66836;-44
2023/05/28 08:19:48;;;;;;;11.23;8.65;;;;;;;31.33;69.13;100359.22;5104539;27;69538;-42
2023/05/28 08:22:56;;;;;;;8.43;7.70;;;;;;;31.30;67.63;100343.44;5094342;27;64376;-46
2023/05/28 08:25:28;;;;;;;6.70;6.13;;;;;;;31.39;66.57;100350.16;5095252;27;69891;-45
2023/05/28 08:28:09;;;;;;;6.97;6.38;;;;;;;31.51;66.30;100351.00;5114609;27;66617;-44
2023/05/28 08:30:42;;;;;;;7.07;6.53;;;;;;;31.37;65.84;100312.47;5108201;27;70021;-44
2023/05/28 08:33:33;;;;;;;6.03;5.70;;;;;;;31.46;65.26;100314.81;5089100;27;65714;-45
2023/05/28 08:36:06;;;;;;;6.50;5.95;;;;;;;31.40;65.03;100294.91;5116585;27;70189;-45
2023/05/28 08:38:37;;;;;;;6.75;6.25;;;;;;;31.47;64.88;100301.00;5112264;27;66761;-44
2023/05/28 08:41:09;;;;;;;6.45;5.93;;;;;;;31.54;65.05;100323.41;5113970;27;70076;-52
2023/05/28 08:43:40;;;;;;;6.50;5.90;;;;;;;31.42;64.88;100309.03;5110349;27;65734;-45
2023/05/28 08:46:12;;;;;;;6.30;6.00;;;;;;;31.52;64.73;100330.94;5103409;27;69511;-44
2023/05/28 08:49:03;;;;;;;6.45;5.95;;;;;;;31.59;64.97;100331.66;5110695;27;65470;-44
2023/05/28 08:51:37;;;;;;;6.20;5.68;;;;;;;31.61;65.18;100328.69;5123170;27;69928;-44
2023/05/28 08:54:08;;;;;;;6.90;6.40;;;;;;;31.65;64.81;100334.44;5104921;27;66547;-45
2023/05/28 08:56:40;;;;;;;5.65;5.25;;;;;;;31.04;64.75;100239.09;5115310;27;72144;-44
2023/05/28 08:59:12;;;;;;;6.60;6.10;;;;;;;31.56;65.23;100332.09;5112741;27;66691;-44
2023/05/28 09:01:43;;;;;;;6.32;5.82;;;;;;;31.66;64.94;100346.97;5106297;27;70012;-45
2023/05/28 09:04:19;;;;;;;8.25;5.95;;;;;;;31.27;65.26;100284.28;5106258;27;66385;-45
2023/05/28 09:06:51;;;;;;;;;;;;;;;31.35;66.40;100352.50;5113263;27;70400;-44
2023/05/28 09:09:45;;;;;;;5.43;5.13;;;;;;;31.53;65.15;100362.41;5107446;27;65968;-44
2023/05/28 09:12:22;;;;;;;6.20;5.70;;;;;;;31.65;65.77;100358.84;5107100;27;70540;-44
2023/05/28 09:15:00;;;;;;;5.95;5.55;;;;;;;31.46;65.80;100345.47;5111461;27;65912;-44
2023/05/28 09:17:36;;;;;;;5.95;5.55;;;;;;;31.11;65.56;100300.19;5105472;27;70224;-44
2023/05/28 09:20:14;;;;;;;5.78;5.00;;;;;;;31.58;65.87;100362.53;5108831;27;67319;-43
2023/05/28 09:22:57;;;;;;;8.55;5.38;;;;;;;31.54;65.96;100364.06;5103717;27;70563;-43
2023/05/28 09:25:47;;;;;;;6.45;6.05;;;;;;;31.66;66.87;100382.22;5105990;27;66055;-44
2023/05/28 09:28:27;;;;;;;14.05;7.43;;;;;;;31.33;69.82;100365.44;5102441;27;70412;-43
2023/05/28 09:31:05;;;;;;;9.90;7.05;;;;;;;31.31;70.77;100364.03;5110003;27;66279;-44
2023/05/28 09:33:45;;;;;;;7.60;6.95;;;;;;;31.41;70.68;100382.47;5105624;27;69652;-43
2023/05/28 09:36:17;;;;;;;6.95;6.13;;;;;;;30.60;72.00;100274.56;5105507;27;65458;-44
2023/05/28 09:38:48;;;;;;;7.00;6.38;;;;;;;31.38;72.38;100405.44;5108897;27;71031;-44
2023/05/28 09:41:22;;;;;;;8.43;6.40;;;;;;;30.56;72.29;100283.38;5106417;27;66315;-45
2023/05/28 09:43:58;;;;;;;9.40;5.88;;;;;;;30.73;72.24;100317.69;5107768;27;69423;-43
2023/05/28 09:46:33;;;;;;;12.38;6.47;;;;;;;31.35;72.08;100422.16;5108712;27;66703;-44
2023/05/28 09:49:04;;;;;;;6.95;6.45;;;;;;;30.89;72.09;100353.28;5108309;27;69799;-43
2023/05/28 09:51:36;;;;;;;13.45;6.32;;;;;;;31.28;71.80;100413.28;5106338;27;66475;-46
2023/05/28 09:54:10;;;;;;;8.13;5.55;;;;;;;31.10;72.13;100398.78;5102466;27;70203;-44
2023/05/28 09:56:43;;;;;;;5.72;5.32;;;;;;;31.29;72.41;100440.16;5104515;27;65996;-42
2023/05/28 09:59:18;;;;;;;7.82;5.18;;;;;;;30.57;72.22;100307.53;5105186;27;69809;-44
2023/05/28 10:02:12;;;;;;;9.20;5.15;;;;;;;31.29;71.40;100433.94;5091952;27;65855;-44
2023/05/28 10:04:45;;;;;;;15.95;5.47;;;;;;;31.29;71.52;100439.34;5109440;27;69588;-45
2023/05/28 10:07:16;;;;;;;11.80;5.47;;;;;;;30.99;71.03;100391.47;5099746;27;66732;-46
2023/05/28 10:09:50;;;;;;;8.43;5.97;;;;;;;31.28;71.38;100437.69;5110442;27;69350;-45
2023/05/28 10:12:25;;;;;;;20.40;6.00;;;;;;;31.10;71.68;100420.47;5105236;27;66333;-47
2023/05/28 10:14:57;;;;;;;10.98;6.18;;;;;;;31.30;71.85;100457.25;5109759;27;70209;-47
2023/05/28 10:17:28;;;;;;;8.60;6.63;;;;;;;31.26;72.10;100461.47;5106795;27;65828;-47
2023/05/28 10:20:00;;;;;;;6.93;6.25;;;;;;;31.25;72.56;100466.06;5103729;27;69687;-44
2023/05/28 10:22:32;;;;;;;7.07;6.47;;;;;;;31.28;72.50;100464.78;5111867;27;66862;-47
2023/05/28 10:25:03;;;;;;;8.57;6.53;;;;;;;31.30;72.30;100459.94;5107011;27;70340;-44
2023/05/28 10:27:44;;;;;;;9.38;6.97;;;;;;;31.23;72.49;100451.09;5107466;27;65186;-46
2023/05/28 10:30:36;;;;;;;9.45;5.55;;;;;;;31.30;71.74;100462.66;5104225;27;69773;-45
2023/05/28 10:33:09;;;;;;;5.90;5.13;;;;;;;30.31;70.87;100292.50;5109347;27;66893;-43
2023/05/28 10:35:55;;;;;;;6.07;4.95;;;;;;;31.32;70.81;100461.38;5104206;27;70512;-43
2023/05/28 10:38:28;;;;;;;5.75;5.40;;;;;;;31.46;70.34;100472.03;5109183;27;65977;-45
2023/05/28 10:41:03;;;;;;;4.90;4.60;;;;;;;31.48;70.01;100484.28;5107249;27;70163;-44
2023/05/28 10:43:39;;;;;;;5.10;4.80;;;;;;;31.50;70.05;100482.16;5107470;27;66529;-44
2023/05/28 10:46:20;;;;;;;5.15;4.78;;;;;;;31.35;69.49;100462.78;5104943;27;70258;-45
2023/05/28 10:49:16;;;;;;;8.82;5.30;;;;;;;31.40;69.47;100495.47;5117646;27;66732;-43
2023/05/28 10:52:00;;;;;;;5.82;5.35;;;;;;;31.47;69.63;100495.34;5102052;27;70171;-46
2023/05/28 10:54:35;;;;;;;5.63;5.18;;;;;;;31.51;69.30;100499.25;5114021;27;64826;-46
2023/05/28 10:57:10;;;;;;;5.57;5.18;;;;;;;31.53;69.28;100506.09;5115298;27;69289;-50
2023/05/28 10:59:49;;;;;;;5.30;4.85;;;;;;;30.67;68.86;100371.91;5112543;27;65134;-47
2023/05/28 11:02:26;;;;;;;4.97;4.68;;;;;;;31.46;68.90;100510.81;5108555;27;71114;-46
2023/05/28 11:05:01;;;;;;;5.80;5.40;;;;;;;30.87;68.64;100404.13;5116232;27;66264;-45
2023/05/28 11:07:41;;;;;;;5.30;5.00;;;;;;;30.65;68.61;100374.88;5110995;27;70249;-44
2023/05/28 11:10:15;;;;;;;5.82;5.38;;;;;;;30.24;68.67;100308.84;5111859;27;65982;-51
2023/05/28 11:12:46;;;;;;;5.20;4.80;;;;;;;31.36;68.61;100486.16;5114734;27;69304;-45
2023/05/28 11:15:17;;;;;;;5.93;5.40;;;;;;;30.92;68.60;100426.78;5119160;27;66546;-45
2023/05/28 11:17:49;;;;;;;6.20;5.65;;;;;;;31.41;68.50;100510.66;5100913;27;69491;-45
2023/05/28 11:20:27;;;;;;;5.60;5.28;;;;;;;31.41;68.45;100502.53;5108996;27;65598;-44
2023/05/28 11:22:58;;;;;;;6.40;6.00;;;;;;;31.34;68.63;100490.94;5109718;27;68113;-45
2023/05/28 11:25:29;;;;;;;6.13;5.70;;;;;;;31.49;68.52;100521.19;5114533;27;66222;-46
2023/05/28 11:28:01;;;;;;;6.53;5.93;;;;;;;31.41;68.51;100507.97;5105278;27;69848;-44
2023/05/28 11:30:32;;;;;;;6.37;5.97;;;;;;;31.45;68.81;100514.56;5101927;27;67993;-45
2023/05/28 11:33:03;;;;;;;6.40;6.00;;;;;;;31.30;68.40;100492.47;5103249;27;69862;-44
2023/05/28 11:35:34;;;;;;;7.27;6.60;;;;;;;31.34;68.58;100493.66;5103868;27;66108;-46
2023/05/28 11:38:05;;;;;;;6.78;6.22;;;;;;;31.42;68.64;100504.19;5113629;27;69867;-45
2023/05/28 11:40:36;;;;;;;7.38;6.45;;;;;;;31.30;68.34;100487.06;5111779;27;66890;-45
2023/05/28 11:43:07;;;;;;;7.73;6.93;;;;;;;31.31;68.52;100492.22;5104756;27;69415;-44
2023/05/28 11:45:39;;;;;;;7.03;6.53;;;;;;;31.44;68.30;100506.66;5111909;27;66232;-45
2023/05/28 11:48:13;;;;;;;6.82;6.32;;;;;;;31.22;68.24;100468.41;5107346;27;70249;-48